Time;durP1;ratioP1;P1;durP2;ratioP2;P2;SDS_P1;SDS_P2;PMS_P1;PMS_P2;Temp;Humidity;BMP_temperature;BMP_pressure;BME280_temperature;BME280_humidity;BME280_pressure;Samples;Min_cycle;Max_cycle;Signal;HPM_P1;HPM_P2
2021/01/25 00:02:25;;;;;;;45.67;19.97;;;0.60;99.90;;;;;;5310341;27;20399;-73
2021/01/25 00:04:52;;;;;;;46.13;20.17;;;0.50;99.90;;;;;;5311641;27;20141;-72
2021/01/25 00:07:18;;;;;;;45.93;20.60;;;0.40;99.90;;;;;;5310046;27;20154;-72
2021/01/25 00:09:47;;;;;;;41.93;19.37;;;0.40;99.90;;;;;;5290057;27;20110;-72
2021/01/25 00:12:13;;;;;;;46.00;20.60;;;0.40;99.90;;;;;;5309215;27;20118;-73
2021/01/25 00:14:40;;;;;;;43.90;20.03;;;0.40;99.90;;;;;;5309764;27;20118;-73
2021/01/25 00:17:06;;;;;;;45.23;20.77;;;0.40;99.90;;;;;;5310534;27;20155;-72
2021/01/25 00:19:33;;;;;;;45.07;19.70;;;0.50;99.90;;;;;;5309634;27;20114;-73
2021/01/25 00:22:02;;;;;;;45.07;20.27;;;0.40;99.90;;;;;;5309598;27;20114;-73
2021/01/25 00:24:28;;;;;;;47.07;19.97;;;0.40;99.90;;;;;;5309251;27;20125;-71
2021/01/25 00:26:55;;;;;;;43.50;19.93;;;0.50;99.90;;;;;;5308683;27;20128;-73
2021/01/25 00:29:21;;;;;;;41.23;18.90;;;0.50;99.90;;;;;;5311116;27;20407;-73
2021/01/25 00:31:48;;;;;;;41.30;18.50;;;0.50;99.90;;;;;;5309478;27;20126;-73
2021/01/25 00:34:15;;;;;;;39.13;17.93;;;0.50;99.90;;;;;;5308112;27;20129;-72
2021/01/25 00:36:42;;;;;;;41.33;19.00;;;0.50;99.90;;;;;;5309402;27;20160;-73
2021/01/25 00:39:08;;;;;;;41.97;18.30;;;0.50;99.90;;;;;;5309639;27;20435;-74
2021/01/25 00:41:35;;;;;;;44.63;18.90;;;0.40;99.90;;;;;;5308445;27;20410;-73
2021/01/25 00:44:01;;;;;;;41.60;18.83;;;0.40;99.90;;;;;;5309272;27;20172;-73
2021/01/25 00:46:28;;;;;;;39.03;17.97;;;0.40;99.90;;;;;;5309267;27;20163;-72
2021/01/25 00:48:54;;;;;;;40.30;17.73;;;0.50;99.90;;;;;;5308858;27;20154;-73
2021/01/25 00:51:21;;;;;;;42.47;18.47;;;0.50;99.90;;;;;;5309289;27;20439;-71
2021/01/25 00:53:47;;;;;;;39.97;18.23;;;0.50;99.90;;;;;;5308955;27;20200;-72
2021/01/25 00:56:14;;;;;;;39.53;17.87;;;0.50;99.90;;;;;;5310003;27;20157;-72
2021/01/25 00:58:40;;;;;;;39.27;17.50;;;0.50;99.90;;;;;;5309623;27;20121;-74
2021/01/25 01:01:07;;;;;;;39.67;18.17;;;0.50;99.90;;;;;;5309273;27;20141;-74
2021/01/25 01:03:34;;;;;;;37.10;17.10;;;0.60;99.90;;;;;;5309337;27;20140;-73
2021/01/25 01:06:01;;;;;;;37.10;17.77;;;0.50;99.90;;;;;;5309999;27;20166;-73
2021/01/25 01:08:28;;;;;;;36.77;17.30;;;0.50;99.90;;;;;;5310204;27;20121;-73
2021/01/25 01:10:55;;;;;;;39.40;18.70;;;0.50;99.90;;;;;;5310533;27;20169;-73
2021/01/25 01:13:21;;;;;;;40.37;17.70;;;0.60;99.90;;;;;;5310832;27;20143;-73
2021/01/25 01:15:48;;;;;;;37.33;17.10;;;0.60;99.90;;;;;;5311262;27;20153;-73
2021/01/25 01:18:14;;;;;;;39.10;17.73;;;0.60;99.90;;;;;;5310689;27;20411;-73
2021/01/25 01:20:41;;;;;;;37.13;17.83;;;0.60;99.90;;;;;;5310992;27;20157;-73
2021/01/25 01:23:07;;;;;;;41.37;18.03;;;0.70;99.90;;;;;;5310098;27;20133;-73
2021/01/25 01:25:34;;;;;;;40.53;17.80;;;0.70;99.90;;;;;;5310716;27;20133;-74
2021/01/25 01:28:00;;;;;;;36.17;16.77;;;0.70;99.90;;;;;;5310542;27;20153;-73
2021/01/25 01:30:27;;;;;;;35.50;16.50;;;0.80;99.90;;;;;;5308140;27;20140;-74
2021/01/25 01:32:54;;;;;;;36.90;16.73;;;0.90;99.90;;;;;;5308865;27;20154;-74
2021/01/25 01:35:21;;;;;;;35.37;16.47;;;0.90;99.90;;;;;;5309292;27;20129;-76
2021/01/25 01:37:47;;;;;;;36.30;16.97;;;0.90;99.90;;;;;;5289622;27;20139;-74
2021/01/25 01:40:14;;;;;;;35.83;16.70;;;0.90;99.90;;;;;;5308692;27;20157;-74
2021/01/25 01:42:41;;;;;;;37.93;16.63;;;1.00;99.90;;;;;;5309067;27;20121;-73
2021/01/25 01:45:09;;;;;;;35.80;16.43;;;1.00;99.90;;;;;;5309134;27;20114;-73
2021/01/25 01:47:39;;;;;;;32.90;16.47;;;1.00;99.90;;;;;;5310910;27;20314;-73
2021/01/25 01:50:07;;;;;;;34.73;16.43;;;1.00;99.90;;;;;;5309676;27;20114;-73
2021/01/25 01:52:34;;;;;;;36.63;16.77;;;1.10;99.90;;;;;;5308920;27;20154;-73
2021/01/25 01:55:01;;;;;;;36.20;17.00;;;1.10;99.90;;;;;;5309076;27;20114;-73
2021/01/25 01:57:29;;;;;;;37.60;16.37;;;1.10;99.90;;;;;;5308850;27;20110;-73
2021/01/25 01:59:55;;;;;;;35.60;17.00;;;1.10;99.90;;;;;;5309166;27;20330;-73
2021/01/25 02:02:22;;;;;;;35.77;16.40;;;1.10;99.90;;;;;;5309338;27;20142;-73
2021/01/25 02:04:49;;;;;;;33.43;16.57;;;1.20;99.90;;;;;;5309016;27;20122;-73
2021/01/25 02:07:17;;;;;;;35.23;16.43;;;1.20;99.90;;;;;;5308558;27;20141;-73
2021/01/25 02:09:47;;;;;;;34.47;16.47;;;1.30;99.90;;;;;;5310802;27;20378;-73
2021/01/25 02:12:16;;;;;;;33.70;15.90;;;1.20;99.90;;;;;;5309493;27;20139;-73
2021/01/25 02:14:44;;;;;;;34.83;16.53;;;1.20;99.90;;;;;;5309432;27;20109;-73
2021/01/25 02:17:13;;;;;;;32.53;16.13;;;1.10;99.90;;;;;;5308997;27;20166;-73
2021/01/25 02:19:46;;;;;;;35.43;15.83;;;1.20;99.90;;;;;;5311075;27;20432;-73
2021/01/25 02:22:37;;;;;;;34.13;16.87;;;1.20;99.90;;;;;;5309126;27;20454;-73
2021/01/25 02:25:28;;;;;;;34.23;16.17;;;1.20;99.90;;;;;;5308609;27;20114;-73
2021/01/25 02:27:54;;;;;;;35.20;15.90;;;1.20;99.90;;;;;;5308807;27;20168;-73
2021/01/25 02:30:22;;;;;;;34.83;16.20;;;1.30;99.90;;;;;;5308694;27;20121;-73
2021/01/25 02:32:52;;;;;;;34.27;16.50;;;1.30;99.90;;;;;;5309864;27;20125;-73
2021/01/25 02:35:20;;;;;;;32.20;16.43;;;1.40;99.90;;;;;;5310986;27;20148;-73
2021/01/25 02:37:52;;;;;;;35.60;16.30;;;1.30;99.90;;;;;;5309108;27;20113;-73
2021/01/25 02:40:21;;;;;;;34.37;16.07;;;1.30;99.90;;;;;;5311051;27;20114;-73
2021/01/25 02:42:50;;;;;;;32.83;15.80;;;1.30;99.90;;;;;;5308541;27;20121;-73
2021/01/25 02:45:18;;;;;;;33.67;15.97;;;1.40;99.90;;;;;;5309012;27;20114;-73
2021/01/25 02:47:45;;;;;;;35.00;16.80;;;1.40;99.90;;;;;;5308515;27;20431;-73
2021/01/25 02:50:12;;;;;;;31.97;15.40;;;1.40;99.90;;;;;;5308544;27;20138;-74
2021/01/25 02:52:39;;;;;;;32.47;15.03;;;1.40;99.90;;;;;;5308528;27;20118;-73
2021/01/25 02:55:06;;;;;;;31.60;15.20;;;1.40;99.90;;;;;;5308765;27;20125;-73
2021/01/25 02:57:34;;;;;;;29.60;15.27;;;1.40;99.90;;;;;;5290266;27;20181;-73
2021/01/25 03:00:03;;;;;;;35.23;15.77;;;1.40;99.90;;;;;;5308328;27;20132;-73
2021/01/25 03:02:30;;;;;;;32.47;15.93;;;1.40;99.90;;;;;;5308390;27;20117;-73
2021/01/25 03:05:00;;;;;;;34.47;15.67;;;1.50;99.90;;;;;;5308352;27;20114;-73
2021/01/25 03:07:27;;;;;;;33.40;16.00;;;1.50;99.90;;;;;;5308696;27;20454;-74
2021/01/25 03:09:58;;;;;;;29.80;15.07;;;1.50;99.90;;;;;;5308505;27;20173;-73
2021/01/25 03:12:25;;;;;;;32.23;15.10;;;1.50;99.90;;;;;;5308882;27;20161;-73
2021/01/25 03:14:51;;;;;;;30.80;15.40;;;1.40;99.90;;;;;;5308580;27;20497;-73
2021/01/25 03:17:18;;;;;;;30.37;15.33;;;1.50;99.90;;;;;;5308082;27;20124;-74
2021/01/25 03:19:45;;;;;;;29.93;14.60;;;1.50;99.90;;;;;;5308632;27;20377;-73
2021/01/25 03:22:11;;;;;;;31.30;15.20;;;1.40;99.90;;;;;;5308867;27;20114;-73
2021/01/25 03:24:38;;;;;;;32.33;15.17;;;1.50;99.90;;;;;;5309203;27;20157;-73
2021/01/25 03:27:04;;;;;;;32.90;15.93;;;1.50;99.90;;;;;;5308717;27;20154;-73
2021/01/25 03:29:32;;;;;;;32.67;15.43;;;1.60;99.90;;;;;;5309216;27;20147;-73
2021/01/25 03:31:58;;;;;;;28.37;14.50;;;1.60;99.90;;;;;;5308662;27;20114;-74
2021/01/25 03:34:25;;;;;;;30.43;15.10;;;1.60;99.90;;;;;;5308618;27;20170;-73
2021/01/25 03:36:52;;;;;;;31.77;15.00;;;1.60;99.90;;;;;;5309739;27;20140;-73
2021/01/25 03:39:18;;;;;;;30.33;15.23;;;1.70;99.90;;;;;;5308465;27;20177;-72
2021/01/25 03:41:47;;;;;;;28.43;14.40;;;1.70;99.90;;;;;;5308661;27;20114;-73
2021/01/25 03:44:15;;;;;;;29.53;14.67;;;1.70;99.90;;;;;;5289545;27;20110;-73
2021/01/25 03:46:45;;;;;;;32.70;15.23;;;1.60;99.90;;;;;;5308774;27;20260;-73
2021/01/25 03:49:16;;;;;;;30.27;14.73;;;1.60;99.90;;;;;;5309221;27;20121;-73
2021/01/25 03:51:43;;;;;;;28.80;14.57;;;1.50;99.90;;;;;;5308196;27;20431;-73
2021/01/25 03:54:12;;;;;;;30.97;14.47;;;1.50;99.90;;;;;;5308285;27;20130;-73
2021/01/25 03:56:43;;;;;;;32.17;15.33;;;1.40;99.90;;;;;;5308462;27;20120;-73
2021/01/25 03:59:10;;;;;;;29.90;14.77;;;1.50;99.90;;;;;;5308193;27;20151;-73
2021/01/25 04:01:36;;;;;;;30.63;14.63;;;1.60;99.90;;;;;;5310748;27;20127;-73
2021/01/25 04:04:03;;;;;;;30.83;15.17;;;1.60;99.90;;;;;;5309901;27;20113;-73
2021/01/25 04:06:30;;;;;;;29.83;15.10;;;1.70;99.90;;;;;;5308181;27;20410;-73
2021/01/25 04:08:56;;;;;;;29.63;15.03;;;1.80;99.90;;;;;;5310866;27;20155;-73
2021/01/25 04:11:23;;;;;;;33.10;15.63;;;1.70;99.90;;;;;;5309063;27;20145;-73
2021/01/25 04:13:49;;;;;;;30.97;15.00;;;1.70;99.90;;;;;;5311013;27;20129;-73
2021/01/25 04:16:16;;;;;;;31.47;15.20;;;1.70;99.90;;;;;;5309328;27;20118;-73
2021/01/25 04:18:42;;;;;;;31.20;14.33;;;1.70;99.90;;;;;;5307676;27;20366;-73
2021/01/25 04:21:09;;;;;;;31.30;15.30;;;1.80;99.90;;;;;;5309875;27;20290;-73
2021/01/25 04:23:36;;;;;;;31.57;15.53;;;1.80;99.90;;;;;;5309038;27;20143;-72
2021/01/25 04:26:03;;;;;;;30.63;15.27;;;1.80;99.90;;;;;;5289193;27;20145;-73
2021/01/25 04:28:29;;;;;;;27.97;14.50;;;1.80;99.90;;;;;;5309791;27;20129;-73
2021/01/25 04:30:56;;;;;;;31.73;15.57;;;1.80;99.90;;;;;;5309784;27;20122;-73
2021/01/25 04:33:22;;;;;;;33.93;16.50;;;1.80;99.90;;;;;;5309216;27;20177;-74
2021/01/25 04:35:49;;;;;;;28.33;14.23;;;1.60;99.90;;;;;;5312149;27;20146;-73
2021/01/25 04:38:15;;;;;;;30.60;14.80;;;1.50;99.90;;;;;;5309685;27;20114;-73
2021/01/25 04:40:42;;;;;;;27.97;14.57;;;1.60;99.90;;;;;;5310707;27;20173;-75
2021/01/25 04:43:09;;;;;;;34.93;14.90;;;1.70;99.90;;;;;;5310424;27;20371;-73
2021/01/25 04:45:35;;;;;;;30.83;14.63;;;1.60;99.90;;;;;;5309720;27;20345;-73
2021/01/25 04:48:03;;;;;;;30.43;15.07;;;1.70;99.90;;;;;;5309816;27;20161;-73
2021/01/25 04:50:30;;;;;;;28.87;14.37;;;1.80;99.90;;;;;;5309638;27;20114;-73
2021/01/25 04:52:57;;;;;;;29.77;15.47;;;1.70;99.90;;;;;;5309086;27;20504;-73
2021/01/25 04:55:26;;;;;;;32.00;15.13;;;1.80;99.90;;;;;;5310029;27;20113;-73
2021/01/25 04:57:53;;;;;;;30.00;14.43;;;1.70;99.90;;;;;;5310308;27;20152;-73
2021/01/25 05:00:20;;;;;;;29.37;15.53;;;1.70;99.90;;;;;;5309598;27;20117;-73
2021/01/25 05:02:47;;;;;;;29.60;15.17;;;1.70;99.90;;;;;;5312100;27;20110;-73
2021/01/25 05:05:14;;;;;;;30.53;14.50;;;1.70;99.90;;;;;;5308987;27;20114;-73
2021/01/25 05:07:40;;;;;;;30.97;14.90;;;1.70;99.90;;;;;;5309399;27;20138;-73
2021/01/25 05:10:08;;;;;;;28.70;14.73;;;1.80;99.90;;;;;;5309584;27;20151;-73
2021/01/25 05:12:48;;;;;;;29.47;14.70;;;1.70;99.90;;;;;;5309240;27;20118;-73
2021/01/25 05:15:26;;;;;;;28.60;13.97;;;1.70;99.90;;;;;;5311718;27;20109;-73
2021/01/25 05:17:55;;;;;;;28.00;13.83;;;1.60;99.90;;;;;;5309733;27;20125;-73
2021/01/25 05:20:25;;;;;;;28.00;14.53;;;1.60;99.90;;;;;;5309420;27;20493;-73
2021/01/25 05:22:52;;;;;;;27.03;14.43;;;1.70;99.90;;;;;;5310148;27;20152;-73
2021/01/25 05:25:37;;;;;;;27.47;14.30;;;1.70;99.90;;;;;;5309435;27;20117;-73
2021/01/25 05:28:07;;;;;;;29.73;14.67;;;1.60;99.90;;;;;;5309888;27;20130;-73
2021/01/25 05:30:34;;;;;;;30.47;15.03;;;1.60;99.90;;;;;;5310222;27;20466;-73
2021/01/25 05:33:01;;;;;;;32.87;15.07;;;1.70;99.90;;;;;;5309286;27;20145;-73
2021/01/25 05:35:30;;;;;;;27.80;15.03;;;1.60;99.90;;;;;;5309799;27;20110;-72
2021/01/25 05:38:04;;;;;;;28.33;14.47;;;1.60;99.90;;;;;;5309380;27;20125;-73
2021/01/25 05:40:33;;;;;;;30.07;15.13;;;1.60;99.90;;;;;;5309355;27;20114;-73
2021/01/25 05:43:00;;;;;;;30.60;15.10;;;1.60;99.90;;;;;;5309739;27;20404;-73
2021/01/25 05:45:29;;;;;;;30.03;15.23;;;1.60;99.90;;;;;;5310665;27;20464;-73
2021/01/25 05:47:59;;;;;;;27.93;14.90;;;1.50;99.90;;;;;;5309347;27;20374;-73
2021/01/25 05:50:36;;;;;;;30.42;14.77;;;1.50;99.90;;;;;;5309209;27;20458;-73
2021/01/25 05:53:08;;;;;;;27.53;14.40;;;1.50;99.90;;;;;;5311523;27;20362;-73
2021/01/25 05:55:35;;;;;;;29.77;14.13;;;1.50;99.90;;;;;;5310713;27;20125;-72
2021/01/25 05:58:03;;;;;;;28.30;14.80;;;1.40;99.90;;;;;;5309842;27;20168;-73
2021/01/25 06:00:31;;;;;;;30.23;14.40;;;1.40;99.90;;;;;;5309148;27;20162;-73
2021/01/25 06:02:58;;;;;;;34.93;15.93;;;1.40;99.90;;;;;;5309196;27;20114;-73
2021/01/25 06:05:31;;;;;;;31.57;15.80;;;1.40;99.90;;;;;;5309194;27;20109;-73
2021/01/25 06:08:05;;;;;;;35.33;15.43;;;1.50;99.90;;;;;;5308626;27;20138;-73
2021/01/25 06:10:39;;;;;;;30.47;15.17;;;1.50;99.90;;;;;;5289564;27;20144;-73
2021/01/25 06:13:13;;;;;;;31.20;15.47;;;1.50;99.90;;;;;;5311255;27;20335;-73
2021/01/25 06:15:41;;;;;;;28.30;14.50;;;1.60;99.90;;;;;;5309373;27;20153;-74
2021/01/25 06:18:07;;;;;;;30.77;15.10;;;1.60;99.90;;;;;;5309097;27;20114;-73
2021/01/25 06:20:35;;;;;;;32.47;16.20;;;1.60;99.90;;;;;;5309143;27;20128;-74
2021/01/25 06:23:03;;;;;;;30.10;15.27;;;1.60;99.90;;;;;;5309013;27;20459;-73
2021/01/25 06:25:30;;;;;;;31.50;15.87;;;1.60;99.90;;;;;;5310552;27;20155;-73
2021/01/25 06:27:57;;;;;;;31.90;15.93;;;1.50;99.90;;;;;;5309003;27;20153;-73
2021/01/25 06:30:26;;;;;;;31.93;15.30;;;1.50;99.90;;;;;;5311030;27;20110;-73
2021/01/25 06:32:54;;;;;;;33.67;15.93;;;1.50;99.90;;;;;;5309095;27;20185;-71
2021/01/25 06:35:21;;;;;;;31.57;14.67;;;1.60;99.90;;;;;;5308888;27;20113;-69
2021/01/25 06:37:53;;;;;;;31.43;15.33;;;1.60;99.90;;;;;;5308907;27;20109;-72
2021/01/25 06:40:29;;;;;;;29.50;15.37;;;1.60;99.90;;;;;;5310506;27;20151;-72
2021/01/25 06:42:56;;;;;;;27.23;14.90;;;1.60;99.90;;;;;;5309150;27;20114;-72
2021/01/25 06:45:25;;;;;;;34.07;15.93;;;1.60;99.90;;;;;;5310756;27;20125;-72
2021/01/25 06:47:52;;;;;;;28.00;14.50;;;1.70;99.90;;;;;;5308418;27;20113;-72
2021/01/25 06:50:20;;;;;;;29.63;15.20;;;1.70;99.90;;;;;;5310121;27;20444;-71
2021/01/25 06:52:50;;;;;;;28.87;15.07;;;1.60;99.90;;;;;;5308411;27;20168;-72
2021/01/25 06:55:17;;;;;;;30.23;15.27;;;1.50;99.90;;;;;;5309247;27;20147;-72
2021/01/25 06:57:46;;;;;;;30.63;15.37;;;1.60;99.90;;;;;;5310850;27;20165;-71
2021/01/25 07:00:19;;;;;;;34.80;15.80;;;1.70;99.90;;;;;;5289327;27;20161;-72
2021/01/25 07:02:57;;;;;;;32.07;15.03;;;1.70;99.90;;;;;;5311155;27;20114;-73
2021/01/25 07:05:29;;;;;;;30.07;15.77;;;1.80;99.90;;;;;;5309017;27;20109;-71
2021/01/25 07:08:21;;;;;;;28.40;14.63;;;1.80;99.90;;;;;;5308573;27;20181;-73
2021/01/25 07:11:06;;;;;;;30.73;14.93;;;1.80;99.90;;;;;;5308684;27;20341;-72
2021/01/25 07:13:35;;;;;;;30.70;15.00;;;1.80;99.90;;;;;;5310609;27;20125;-73
2021/01/25 07:16:03;;;;;;;32.43;15.03;;;1.70;99.90;;;;;;5308582;27;20118;-72
2021/01/25 07:18:30;;;;;;;31.37;15.80;;;1.70;99.90;;;;;;5310834;27;20428;-73
2021/01/25 07:20:58;;;;;;;30.80;15.43;;;1.80;99.90;;;;;;5310809;27;20125;-73
2021/01/25 07:23:27;;;;;;;29.07;15.37;;;1.80;99.90;;;;;;5308740;27;20110;-74
2021/01/25 07:25:54;;;;;;;29.93;16.30;;;1.90;99.90;;;;;;5309006;27;20106;-72
2021/01/25 07:28:22;;;;;;;31.63;15.93;;;1.90;99.90;;;;;;5310155;27;20417;-72
2021/01/25 07:30:48;;;;;;;31.33;15.37;;;1.90;99.90;;;;;;5308220;27;20125;-72
2021/01/25 07:33:16;;;;;;;31.63;15.90;;;1.90;99.90;;;;;;5308575;27;20432;-71
2021/01/25 07:35:42;;;;;;;32.53;16.30;;;1.70;99.90;;;;;;5310190;27;20167;-71
2021/01/25 07:38:09;;;;;;;31.70;16.40;;;1.80;99.90;;;;;;5310606;27;20157;-72
2021/01/25 07:40:36;;;;;;;28.50;15.53;;;1.80;99.90;;;;;;5308633;27;20390;-72
2021/01/25 07:43:04;;;;;;;30.37;15.80;;;1.90;99.90;;;;;;5310520;27;20156;-72
2021/01/25 07:45:31;;;;;;;34.03;15.80;;;1.90;99.90;;;;;;5308157;27;20395;-72
2021/01/25 07:47:58;;;;;;;31.13;15.20;;;2.00;99.90;;;;;;5310430;27;20114;-72
2021/01/25 07:50:25;;;;;;;32.17;15.63;;;2.10;99.90;;;;;;5310517;27;20397;-71
2021/01/25 07:53:03;;;;;;;31.07;15.60;;;2.20;99.90;;;;;;5308099;27;20138;-71
2021/01/25 07:55:30;;;;;;;30.20;15.10;;;2.20;99.90;;;;;;5308548;27;20364;-72
2021/01/25 07:58:09;;;;;;;31.37;16.30;;;2.10;99.90;;;;;;5309187;27;20175;-71
2021/01/25 08:00:40;;;;;;;29.00;15.70;;;2.20;99.90;;;;;;5311328;27;20389;-71
2021/01/25 08:03:24;;;;;;;32.30;14.83;;;2.20;99.90;;;;;;5309895;27;20124;-72
2021/01/25 08:05:55;;;;;;;30.20;15.33;;;2.20;99.90;;;;;;5309527;27;20109;-73
2021/01/25 08:08:25;;;;;;;31.13;16.03;;;2.30;99.90;;;;;;5308619;27;20158;-73
2021/01/25 08:10:52;;;;;;;33.03;16.37;;;2.20;99.90;;;;;;5309441;27;20132;-71
2021/01/25 08:13:23;;;;;;;35.20;15.87;;;2.20;99.90;;;;;;5310639;27;20161;-71
2021/01/25 08:16:01;;;;;;;33.40;16.23;;;2.30;99.90;;;;;;5310307;27;20361;-71
2021/01/25 08:18:53;;;;;;;33.70;15.67;;;2.10;99.90;;;;;;5309880;27;20188;-72
2021/01/25 08:21:28;;;;;;;31.67;16.70;;;2.10;99.90;;;;;;5309184;27;20152;-72
2021/01/25 08:24:01;;;;;;;31.70;16.67;;;2.00;99.90;;;;;;5312032;27;20110;-72
2021/01/25 08:26:29;;;;;;;35.87;17.13;;;2.10;99.90;;;;;;5310480;27;20113;-72
2021/01/25 08:29:21;;;;;;;34.73;17.37;;;2.10;99.90;;;;;;5310504;27;20109;-73
2021/01/25 08:31:48;;;;;;;37.63;17.90;;;1.90;99.90;;;;;;5290146;27;20169;-72
2021/01/25 08:34:23;;;;;;;32.27;15.77;;;1.90;99.90;;;;;;5310413;27;20133;-72
2021/01/25 08:36:59;;;;;;;35.77;17.43;;;1.80;99.90;;;;;;5310664;27;20172;-72
2021/01/25 08:39:34;;;;;;;33.27;16.63;;;1.90;99.90;;;;;;5309596;27;20372;-72
2021/01/25 08:42:03;;;;;;;33.43;16.67;;;1.90;99.90;;;;;;5310642;27;20344;-71
2021/01/25 08:44:30;;;;;;;36.00;17.53;;;2.00;99.90;;;;;;5310581;27;20412;-72
2021/01/25 08:47:07;;;;;;;37.07;18.30;;;2.10;99.90;;;;;;5309605;27;20399;-72
2021/01/25 08:49:40;;;;;;;37.23;17.33;;;2.10;99.90;;;;;;5307868;27;20157;-72
2021/01/25 08:52:09;;;;;;;35.20;16.80;;;2.10;99.90;;;;;;5310056;27;20199;-71
2021/01/25 08:54:39;;;;;;;35.90;17.53;;;2.00;99.90;;;;;;5309430;27;20114;-72
2021/01/25 08:57:17;;;;;;;33.90;17.03;;;2.00;99.90;;;;;;5311478;27;20109;-72
2021/01/25 08:59:45;;;;;;;30.93;14.43;;;2.20;99.90;;;;;;5310473;27;20133;-72
2021/01/25 09:02:17;;;;;;;28.00;14.53;;;2.10;99.90;;;;;;5309505;27;20130;-74
2021/01/25 09:04:44;;;;;;;25.83;13.37;;;2.00;99.90;;;;;;5311091;27;20113;-72
2021/01/25 09:07:16;;;;;;;29.00;14.77;;;2.10;99.90;;;;;;5309085;27;20142;-73
2021/01/25 09:09:43;;;;;;;30.07;14.53;;;2.20;99.90;;;;;;5309117;27;20182;-71
2021/01/25 09:12:14;;;;;;;29.73;14.40;;;2.10;99.90;;;;;;5307607;27;20193;-72
2021/01/25 09:14:41;;;;;;;25.83;13.03;;;2.20;99.90;;;;;;5309119;27;20114;-72
2021/01/25 09:17:09;;;;;;;26.50;12.93;;;2.40;99.90;;;;;;5311402;27;20121;-72
2021/01/25 09:19:37;;;;;;;29.00;13.67;;;2.30;99.90;;;;;;5309177;27;20144;-73
2021/01/25 09:22:05;;;;;;;23.87;11.97;;;2.40;99.90;;;;;;5309291;27;20145;-72
2021/01/25 09:24:32;;;;;;;25.93;12.73;;;2.30;99.90;;;;;;5310295;27;20462;-72
2021/01/25 09:26:59;;;;;;;21.30;11.00;;;2.30;99.90;;;;;;5309946;27;20122;-72
2021/01/25 09:29:26;;;;;;;26.57;12.80;;;2.30;99.90;;;;;;5309402;27;20388;-73
2021/01/25 09:31:52;;;;;;;23.83;12.10;;;2.30;99.90;;;;;;5309470;27;20475;-72
2021/01/25 09:34:19;;;;;;;23.30;11.80;;;2.40;99.90;;;;;;5310572;27;20114;-72
2021/01/25 09:36:46;;;;;;;23.40;10.87;;;2.40;99.90;;;;;;5308580;27;20128;-72
2021/01/25 09:39:14;;;;;;;23.93;12.00;;;2.40;99.90;;;;;;5309348;27;20439;-71
2021/01/25 09:41:44;;;;;;;24.40;11.80;;;2.40;99.90;;;;;;5309116;27;20158;-71
2021/01/25 09:44:11;;;;;;;23.97;11.23;;;2.40;99.90;;;;;;5310528;27;20130;-72
2021/01/25 09:46:38;;;;;;;23.17;12.03;;;2.30;99.90;;;;;;5310636;27;20114;-71
2021/01/25 09:49:05;;;;;;;21.67;10.60;;;2.20;99.90;;;;;;5309117;27;20114;-71
2021/01/25 09:51:32;;;;;;;21.17;11.20;;;2.30;99.90;;;;;;5311132;27;20138;-69
2021/01/25 09:53:58;;;;;;;20.30;11.00;;;2.40;99.90;;;;;;5309361;27;20114;-70
2021/01/25 09:56:25;;;;;;;21.77;11.00;;;2.30;99.90;;;;;;5309464;27;20207;-72
2021/01/25 09:58:51;;;;;;;20.80;10.50;;;2.20;99.90;;;;;;5309036;27;20121;-71
2021/01/25 10:01:18;;;;;;;23.83;11.07;;;2.10;99.90;;;;;;5309079;27;20118;-72
2021/01/25 10:03:45;;;;;;;17.50;9.50;;;2.20;99.90;;;;;;5309150;27;20471;-71
2021/01/25 10:06:11;;;;;;;19.87;10.07;;;2.30;99.90;;;;;;5308795;27;20113;-72
2021/01/25 10:08:38;;;;;;;18.90;9.87;;;2.20;99.90;;;;;;5311174;27;20125;-71
2021/01/25 10:11:05;;;;;;;19.60;10.30;;;2.10;99.90;;;;;;5310082;27;20181;-71
2021/01/25 10:13:33;;;;;;;20.87;9.90;;;2.30;99.90;;;;;;5308967;27;20129;-71
2021/01/25 10:15:59;;;;;;;18.27;10.03;;;2.30;99.90;;;;;;5310095;27;20386;-71
2021/01/25 10:18:26;;;;;;;20.33;10.53;;;2.40;99.90;;;;;;5309598;27;20121;-72
2021/01/25 10:20:53;;;;;;;20.50;10.27;;;2.50;99.90;;;;;;5308252;27;20408;-71
2021/01/25 10:23:20;;;;;;;18.83;9.77;;;2.30;99.90;;;;;;5308289;27;20114;-72
2021/01/25 10:25:47;;;;;;;22.53;10.90;;;2.30;99.90;;;;;;5311369;27;20457;-72
2021/01/25 10:28:15;;;;;;;19.27;10.67;;;2.30;99.90;;;;;;5308407;27;20129;-71
2021/01/25 10:30:42;;;;;;;21.80;11.60;;;2.10;99.90;;;;;;5311171;27;20114;-72
2021/01/25 10:33:08;;;;;;;22.00;11.47;;;2.20;99.90;;;;;;5308903;27;20417;-73
2021/01/25 10:35:35;;;;;;;22.80;11.57;;;2.30;99.90;;;;;;5309131;27;20424;-71
2021/01/25 10:38:02;;;;;;;23.77;12.07;;;2.40;99.90;;;;;;5308475;27;20121;-71
2021/01/25 10:40:28;;;;;;;21.97;12.00;;;2.40;99.90;;;;;;5308817;27;20517;-71
2021/01/25 10:42:57;;;;;;;25.13;13.17;;;2.30;99.90;;;;;;5309551;27;20125;-72
2021/01/25 10:45:24;;;;;;;25.57;13.37;;;2.30;99.90;;;;;;5310826;27;20357;-72
2021/01/25 10:47:53;;;;;;;26.07;13.10;;;2.30;99.90;;;;;;5310888;27;20183;-71
2021/01/25 10:50:21;;;;;;;23.83;12.63;;;2.40;99.90;;;;;;5308765;27;20114;-72
2021/01/25 10:52:49;;;;;;;22.73;12.13;;;2.40;99.90;;;;;;5308656;27;20384;-70
2021/01/25 10:55:16;;;;;;;23.20;12.43;;;2.20;99.90;;;;;;5308837;27;20368;-72
2021/01/25 10:57:43;;;;;;;26.67;13.80;;;2.20;99.90;;;;;;5309098;27;20141;-72
2021/01/25 11:00:20;;;;;;;25.37;12.37;;;2.20;99.90;;;;;;5308856;27;20121;-72
2021/01/25 11:02:48;;;;;;;24.40;12.30;;;2.10;99.90;;;;;;5309480;27;20153;-72
2021/01/25 11:05:18;;;;;;;26.93;12.50;;;2.10;99.90;;;;;;5308766;27;20113;-72
2021/01/25 11:07:45;;;;;;;25.60;12.40;;;2.00;99.90;;;;;;5308520;27;20148;-71
2021/01/25 11:10:16;;;;;;;22.70;12.27;;;2.00;99.90;;;;;;5309364;27;20181;-70
2021/01/25 11:12:43;;;;;;;24.63;11.90;;;1.90;99.90;;;;;;5308327;27;20180;-72
2021/01/25 11:15:10;;;;;;;24.97;12.53;;;1.90;99.90;;;;;;5308778;27;20420;-71
2021/01/25 11:17:37;;;;;;;29.20;13.60;;;1.90;99.90;;;;;;5310563;27;20114;-71
2021/01/25 11:20:05;;;;;;;26.50;13.70;;;2.10;99.90;;;;;;5308694;27;20141;-71
2021/01/25 11:22:31;;;;;;;26.77;12.73;;;2.10;99.90;;;;;;5311165;27;20145;-71
2021/01/25 11:24:58;;;;;;;25.53;12.63;;;2.20;99.90;;;;;;5309337;27;20113;-73
2021/01/25 11:27:25;;;;;;;26.03;13.27;;;2.30;99.90;;;;;;5308728;27;20117;-73
2021/01/25 11:29:52;;;;;;;26.30;12.90;;;2.40;99.90;;;;;;5288600;27;20165;-73
2021/01/25 11:32:18;;;;;;;21.23;10.77;;;2.20;99.90;;;;;;5309823;27;20136;-73
2021/01/25 11:34:45;;;;;;;17.63;9.07;;;2.10;99.90;;;;;;5311829;27;20125;-73
2021/01/25 11:37:12;;;;;;;18.20;9.40;;;1.90;99.90;;;;;;5311410;27;20157;-73
2021/01/25 11:39:41;;;;;;;18.23;9.70;;;2.00;99.90;;;;;;5310019;27;20153;-72
2021/01/25 11:42:07;;;;;;;20.13;9.10;;;2.00;99.90;;;;;;5310109;27;20154;-72
2021/01/25 11:44:34;;;;;;;20.40;9.07;;;2.00;99.90;;;;;;5292730;27;20164;-73
2021/01/25 11:47:00;;;;;;;21.47;9.50;;;2.20;99.90;;;;;;5309856;27;20124;-73
2021/01/25 11:49:27;;;;;;;18.57;9.37;;;2.30;99.90;;;;;;5312483;27;20133;-73
2021/01/25 11:51:53;;;;;;;23.67;10.83;;;2.40;99.90;;;;;;5310098;27;20152;-73
2021/01/25 11:54:20;;;;;;;27.77;13.67;;;2.40;99.90;;;;;;5310017;27;20145;-73
2021/01/25 11:56:46;;;;;;;29.20;13.97;;;2.40;99.90;;;;;;5309974;27;20495;-74
2021/01/25 11:59:13;;;;;;;28.40;13.97;;;2.30;99.90;;;;;;5309726;27;20468;-73
2021/01/25 12:01:40;;;;;;;28.67;14.17;;;2.20;99.90;;;;;;5309408;27;20432;-73
2021/01/25 12:04:07;;;;;;;31.13;14.13;;;2.20;99.90;;;;;;5310550;27;20114;-74
2021/01/25 12:06:33;;;;;;;31.93;14.30;;;2.20;99.90;;;;;;5310385;27;20141;-73
2021/01/25 12:09:00;;;;;;;31.30;14.63;;;2.20;99.90;;;;;;5312158;27;20117;-73
2021/01/25 12:11:27;;;;;;;29.53;14.50;;;2.10;99.90;;;;;;5309829;27;20121;-73
2021/01/25 12:13:53;;;;;;;32.40;14.63;;;2.20;99.90;;;;;;5310139;27;20150;-72
2021/01/25 12:16:20;;;;;;;30.40;14.80;;;2.20;99.90;;;;;;5309758;27;20163;-72
2021/01/25 12:18:46;;;;;;;33.67;15.93;;;2.20;99.90;;;;;;5290317;27;20483;-74
2021/01/25 12:21:14;;;;;;;34.13;15.10;;;2.20;99.90;;;;;;5309806;27;20179;-73
2021/01/25 12:23:41;;;;;;;25.37;12.77;;;2.20;99.90;;;;;;5309799;27;20114;-73
2021/01/25 12:26:08;;;;;;;24.93;12.43;;;2.10;99.90;;;;;;5289404;27;20475;-73
2021/01/25 12:28:34;;;;;;;22.43;11.67;;;2.10;99.90;;;;;;5310034;27;20110;-73
2021/01/25 12:31:04;;;;;;;26.27;12.67;;;2.00;99.90;;;;;;5309614;27;20151;-73
2021/01/25 12:33:31;;;;;;;23.77;11.27;;;2.10;99.90;;;;;;5310272;27;20114;-73
2021/01/25 12:35:58;;;;;;;20.30;10.50;;;2.10;99.90;;;;;;5309701;27;20129;-72
2021/01/25 12:38:24;;;;;;;22.47;10.87;;;2.00;99.90;;;;;;5310609;27;20132;-73
2021/01/25 12:40:51;;;;;;;21.57;10.47;;;2.00;99.90;;;;;;5290236;27;20374;-72
2021/01/25 12:43:18;;;;;;;23.23;10.70;;;2.00;99.90;;;;;;5309452;27;20161;-72
2021/01/25 12:45:44;;;;;;;21.77;10.33;;;1.80;99.90;;;;;;5310343;27;20129;-73